Time;durP1;ratioP1;P1;durP2;ratioP2;P2;SDS_P1;SDS_P2;PMS_P1;PMS_P2;Temp;Humidity;BMP_temperature;BMP_pressure;BME280_temperature;BME280_humidity;BME280_pressure;Samples;Min_cycle;Max_cycle;Signal;HPM_P1;HPM_P2
2023/10/21 00:01:25;;;;;;;6.03;1.17;;;;;;;19.12;61.53;94267.34;10339255;28;20397;-30
2023/10/21 00:06:25;;;;;;;2.03;0.90;;;;;;;19.14;61.51;94290.94;10347198;28;20026;-29
2023/10/21 00:11:26;;;;;;;2.90;1.03;;;;;;;19.13;61.56;94301.13;10342431;28;20406;-28
2023/10/21 00:16:28;;;;;;;2.30;0.80;;;;;;;19.13;61.42;94323.97;10346595;28;20038;-28
2023/10/21 00:21:29;;;;;;;2.80;1.05;;;;;;;19.12;61.62;94307.09;10350206;28;20030;-29
2023/10/21 00:26:30;;;;;;;3.90;1.00;;;;;;;19.10;61.84;94324.09;10335874;28;20113;-28
2023/10/21 00:31:31;;;;;;;3.08;0.80;;;;;;;19.10;61.88;94329.16;10347156;28;20058;-28
2023/10/21 00:36:31;;;;;;;1.67;0.93;;;;;;;19.09;61.88;94355.41;10337715;28;20031;-28
2023/10/21 00:41:31;;;;;;;3.17;1.10;;;;;;;19.10;62.14;94364.66;10350402;28;20034;-28
2023/10/21 00:46:32;;;;;;;2.67;1.23;;;;;;;19.10;62.08;94364.66;10354095;28;20037;-29
2023/10/21 00:51:35;;;;;;;3.10;1.13;;;;;;;19.10;61.80;94379.88;10345911;28;20073;-28
2023/10/21 00:56:36;;;;;;;7.00;0.88;;;;;;;19.09;61.88;94398.53;10336532;28;20038;-27
2023/10/21 01:01:37;;;;;;;1.70;0.82;;;;;;;19.10;61.85;94411.13;10345666;28;20520;-28
2023/10/21 01:06:38;;;;;;;3.17;1.02;;;;;;;19.08;61.98;94420.50;10345775;28;20027;-28
2023/10/21 01:11:38;;;;;;;2.13;0.80;;;;;;;19.08;62.15;94428.13;10350350;28;20041;-28
2023/10/21 01:16:39;;;;;;;1.73;0.70;;;;;;;19.08;62.25;94428.13;10336202;28;20386;-28
2023/10/21 01:21:39;;;;;;;2.07;0.90;;;;;;;19.06;62.39;94446.81;10346304;28;20292;-27
2023/10/21 01:26:39;;;;;;;2.33;0.80;;;;;;;19.05;62.37;94450.22;10360435;28;20148;-27
2023/10/21 01:31:40;;;;;;;2.87;1.10;;;;;;;19.07;62.60;94450.97;10354667;28;20053;-27
2023/10/21 01:36:40;;;;;;;2.37;0.80;;;;;;;19.09;62.34;94459.38;10353657;28;20039;-28
2023/10/21 01:41:40;;;;;;;3.30;0.80;;;;;;;19.06;62.26;94456.94;10362351;28;20045;-29
2023/10/21 01:46:41;;;;;;;2.63;1.00;;;;;;;19.08;62.32;94490.69;10358212;28;20037;-28
2023/10/21 01:51:41;;;;;;;3.73;1.03;;;;;;;19.07;62.74;94487.31;10363755;28;20042;-28
2023/10/21 01:56:41;;;;;;;4.47;1.00;;;;;;;19.06;62.49;94479.75;10355237;28;20038;-29
2023/10/21 02:01:42;;;;;;;3.00;1.00;;;;;;;19.06;62.75;94492.44;10365192;28;20038;-29
2023/10/21 02:06:42;;;;;;;4.53;1.17;;;;;;;19.07;62.48;94499.16;10361394;28;20034;-28
2023/10/21 02:11:42;;;;;;;5.03;0.80;;;;;;;19.08;62.65;94514.34;10356932;28;20037;-28
2023/10/21 02:16:43;;;;;;;3.40;0.70;;;;;;;19.08;62.75;94519.41;10359480;28;20030;-28
2023/10/21 02:21:43;;;;;;;2.67;0.80;;;;;;;19.06;62.31;94515.28;10359622;28;20112;-28
2023/10/21 02:26:43;;;;;;;3.63;1.07;;;;;;;19.09;62.43;94525.31;10358333;28;20044;-28
2023/10/21 02:31:44;;;;;;;4.83;0.70;;;;;;;19.09;62.34;94525.31;10356162;28;20960;-28
2023/10/21 02:36:45;;;;;;;2.03;0.80;;;;;;;19.09;62.17;94531.19;10353280;28;20367;-27
2023/10/21 02:41:47;;;;;;;1.83;0.70;;;;;;;19.10;62.44;94537.91;10360500;28;20061;-28
2023/10/21 02:46:48;;;;;;;2.70;1.00;;;;;;;19.07;62.66;94542.28;10346826;28;20117;-28
2023/10/21 02:51:49;;;;;;;2.33;0.90;;;;;;;19.09;62.07;94545.59;10356824;28;20062;-27
2023/10/21 02:56:49;;;;;;;2.03;0.90;;;;;;;19.07;62.49;94560.88;10355431;28;20025;-28
2023/10/21 03:01:50;;;;;;;3.33;0.90;;;;;;;19.10;62.54;94578.50;10358174;28;20029;-27
2023/10/21 03:06:51;;;;;;;3.07;0.80;;;;;;;19.08;62.67;94595.50;10355240;28;20109;-28
2023/10/21 03:11:51;;;;;;;3.13;0.80;;;;;;;19.07;62.60;94581.16;10360117;28;20413;-27
2023/10/21 03:16:52;;;;;;;4.18;1.00;;;;;;;19.08;62.77;94610.69;10368025;28;20034;-28
2023/10/21 03:21:52;;;;;;;2.78;0.70;;;;;;;19.06;62.66;94611.63;10352370;28;20447;-28
2023/10/21 03:26:53;;;;;;;2.57;0.90;;;;;;;19.08;62.11;94614.97;10354038;28;20451;-28
2023/10/21 03:31:53;;;;;;;6.70;1.70;;;;;;;19.07;62.37;94620.88;10348260;28;20289;-28
2023/10/21 03:36:53;;;;;;;4.20;0.90;;;;;;;19.05;62.27;94630.28;10345860;28;20044;-28
2023/10/21 03:41:54;;;;;;;4.70;1.20;;;;;;;19.07;62.59;94649.63;10355751;28;20044;-28
2023/10/21 03:46:54;;;;;;;2.63;0.70;;;;;;;19.09;62.07;94658.00;10349667;28;20021;-27
2023/10/21 03:51:55;;;;;;;1.77;0.70;;;;;;;19.09;62.22;94654.66;10339989;28;20025;-28
2023/10/21 03:56:56;;;;;;;2.37;0.87;;;;;;;19.09;62.10;94668.16;10348538;28;20496;-28
2023/10/21 04:01:57;;;;;;;2.20;1.00;;;;;;;19.07;62.49;94680.06;10353847;28;20037;-28
2023/10/21 04:06:58;;;;;;;3.00;1.17;;;;;;;19.08;62.89;94691.84;10357854;28;20058;-30
2023/10/21 04:11:59;;;;;;;3.97;1.10;;;;;;;19.07;62.32;94695.28;10356536;28;20062;-28
2023/10/21 04:16:59;;;;;;;2.33;0.70;;;;;;;19.06;62.35;94687.72;10349778;28;20061;-27
2023/10/21 04:21:59;;;;;;;3.88;0.70;;;;;;;19.10;62.30;94707.03;10346538;28;20040;-27
2023/10/21 04:27:00;;;;;;;3.73;1.63;;;;;;;19.13;61.73;94704.38;10350246;28;20033;-27
2023/10/21 04:32:00;;;;;;;3.43;0.80;;;;;;;19.11;62.11;94706.16;10349739;28;20066;-28
2023/10/21 04:37:00;;;;;;;2.23;0.67;;;;;;;19.09;61.85;94707.91;10347264;28;20354;-27
2023/10/21 04:42:01;;;;;;;2.83;1.53;;;;;;;19.08;62.26;94716.41;10358343;28;20040;-28
2023/10/21 04:47:01;;;;;;;2.33;0.73;;;;;;;19.06;62.14;94708.00;10343698;28;20279;-27
2023/10/21 04:52:03;;;;;;;2.33;0.80;;;;;;;19.08;61.69;94729.91;10339472;28;20504;-28
2023/10/21 04:57:03;;;;;;;4.18;1.50;;;;;;;19.03;61.71;94723.34;10354073;28;20026;-28
2023/10/21 05:02:05;;;;;;;1.20;0.60;;;;;;;19.11;61.40;94749.25;10356636;28;20049;-29
2023/10/21 05:07:06;;;;;;;1.75;0.50;;;;;;;19.09;61.46;94769.59;10358606;28;20041;-28
2023/10/21 05:12:10;;;;;;;3.10;0.82;;;;;;;19.12;60.99;94788.97;10339991;28;20030;-29
2023/10/21 05:17:10;;;;;;;3.95;0.90;;;;;;;19.14;61.12;94787.19;10351449;28;20070;-28
2023/10/21 05:22:10;;;;;;;3.80;0.97;;;;;;;19.14;61.02;94789.72;10348267;28;20084;-28
2023/10/21 05:27:11;;;;;;;1.90;0.93;;;;;;;19.13;61.84;94798.22;10347096;28;20502;-27
2023/10/21 05:32:11;;;;;;;2.43;0.80;;;;;;;19.15;60.92;94816.75;10341301;28;20273;-27
2023/10/21 05:37:12;;;;;;;1.83;0.70;;;;;;;19.12;60.92;94832.91;10341892;28;20038;-27
2023/10/21 05:42:12;;;;;;;2.47;0.85;;;;;;;19.05;61.23;94820.47;10346415;28;20288;-29
2023/10/21 05:47:12;;;;;;;1.23;0.70;;;;;;;19.14;60.98;94850.59;10349078;28;20036;-27
2023/10/21 05:52:14;;;;;;;3.13;1.00;;;;;;;19.14;60.68;94853.13;10343341;28;20033;-28
2023/10/21 05:57:15;;;;;;;4.43;0.77;;;;;;;19.14;60.97;94860.75;10338570;28;20044;-28
2023/10/21 06:02:15;;;;;;;1.80;0.70;;;;;;;19.16;60.82;94879.31;10349947;28;20048;-28
2023/10/21 06:07:16;;;;;;;1.63;0.53;;;;;;;19.14;60.94;94878.50;10347580;28;20080;-28
2023/10/21 06:12:17;;;;;;;0.90;0.50;;;;;;;19.14;60.83;94883.59;10351387;28;20044;-28
2023/10/21 06:17:17;;;;;;;3.47;0.75;;;;;;;19.02;60.74;94902.53;10355105;28;20046;-28
2023/10/21 06:22:18;;;;;;;1.40;0.70;;;;;;;18.97;60.34;94906.09;10343535;28;20038;-28
2023/10/21 06:27:19;;;;;;;2.35;0.70;;;;;;;18.97;59.76;94929.75;10353888;28;20065;-28
2023/10/21 06:32:22;;;;;;;3.27;0.80;;;;;;;19.01;59.42;94938.13;10344969;28;20512;-30
2023/10/21 06:37:22;;;;;;;1.45;0.70;;;;;;;18.98;59.26;94940.72;10349362;28;20034;-27
2023/10/21 06:42:23;;;;;;;4.68;1.33;;;;;;;19.04;59.22;94940.53;10346032;28;20050;-28
2023/10/21 06:47:23;;;;;;;6.03;1.63;;;;;;;19.00;58.76;94952.47;10334514;28;20029;-28
2023/10/21 06:52:24;;;;;;;3.27;0.90;;;;;;;19.01;58.70;94968.53;10353018;28;20089;-29
2023/10/21 06:57:24;;;;;;;4.30;1.67;;;;;;;18.99;58.46;94971.13;10346374;28;20030;-29
2023/10/21 07:02:25;;;;;;;3.47;0.80;;;;;;;18.95;58.19;94984.78;10353494;28;20107;-28
2023/10/21 07:07:25;;;;;;;4.88;1.10;;;;;;;18.93;57.70;94995.84;10331732;28;20044;-28
2023/10/21 07:12:25;;;;;;;4.50;0.63;;;;;;;19.52;56.82;95012.66;10333176;28;20515;-29
2023/10/21 07:17:26;;;;;;;9.63;1.80;;;;;;;19.46;57.78;95011.16;10342622;28;20489;-27
2023/10/21 07:22:26;;;;;;;6.50;3.53;;;;;;;19.32;58.21;95025.94;10350421;28;20550;-27
2023/10/21 07:27:26;;;;;;;3.83;1.20;;;;;;;19.20;57.87;95043.25;10350439;28;20030;-27
2023/10/21 07:32:27;;;;;;;11.17;2.33;;;;;;;19.18;58.63;95047.50;10349791;28;20034;-27
2023/10/21 07:37:28;;;;;;;10.25;2.42;;;;;;;19.16;58.71;95050.06;10347014;28;20095;-28
2023/10/21 07:42:28;;;;;;;6.50;1.50;;;;;;;19.16;58.50;95069.56;10335097;28;20452;-28
2023/10/21 07:47:29;;;;;;;6.83;1.67;;;;;;;19.13;59.03;95064.56;10347848;28;20028;-28
2023/10/21 07:52:29;;;;;;;6.72;1.48;;;;;;;19.15;58.96;95070.41;10353966;28;20579;-28
2023/10/21 07:57:33;;;;;;;8.50;1.40;;;;;;;19.18;58.85;95073.69;10348817;28;20061;-28
2023/10/21 08:02:34;;;;;;;2.85;1.10;;;;;;;19.16;58.77;95080.53;10341835;28;20089;-29
2023/10/21 08:07:35;;;;;;;3.13;0.65;;;;;;;19.19;58.87;95092.31;10345520;28;20034;-29
2023/10/21 08:12:36;;;;;;;3.40;0.90;;;;;;;19.22;58.30;95102.38;10343242;28;20539;-28
2023/10/21 08:17:36;;;;;;;4.78;1.77;;;;;;;19.20;58.05;95088.91;10337153;28;20052;-28
2023/10/21 08:22:37;;;;;;;6.90;1.35;;;;;;;19.20;57.89;95106.66;10352488;28;20088;-28
2023/10/21 08:27:37;;;;;;;8.97;2.73;;;;;;;19.20;57.77;95099.06;10332746;28;20031;-29
2023/10/21 08:32:38;;;;;;;9.70;1.90;;;;;;;19.21;56.64;95104.09;10351754;28;20037;-28
2023/10/21 08:37:38;;;;;;;4.75;1.30;;;;;;;19.19;56.75;95110.91;10351808;28;20042;-28
2023/10/21 08:42:39;;;;;;;12.17;1.53;;;;;;;19.15;57.95;95118.59;10346955;28;20041;-28
2023/10/21 08:47:42;;;;;;;3.55;0.73;;;;;;;19.09;56.87;95134.81;10351573;28;20058;-27
2023/10/21 08:52:43;;;;;;;5.63;0.98;;;;;;;19.08;56.74;95124.75;10352146;28;20042;-27
2023/10/21 08:57:43;;;;;;;5.80;1.05;;;;;;;19.14;57.18;95139.78;10336538;28;20038;-28
2023/10/21 09:02:44;;;;;;;4.23;1.23;;;;;;;19.14;58.02;95142.31;10352696;28;20045;-28
2023/10/21 09:07:45;;;;;;;7.47;1.38;;;;;;;19.14;58.10;95144.84;10362967;28;20297;-29
2023/10/21 09:12:46;;;;;;;4.28;1.00;;;;;;;19.15;58.42;95159.19;10354641;28;20026;-28
2023/10/21 09:17:46;;;;;;;4.93;0.90;;;;;;;19.16;58.70;95154.09;10357938;28;20044;-28
2023/10/21 09:22:52;;;;;;;5.38;1.30;;;;;;;19.16;59.21;95160.88;10360581;28;20369;-28
2023/10/21 09:27:55;;;;;;;5.80;0.80;;;;;;;19.15;59.24;95162.56;10342613;28;20036;-28
2023/10/21 09:33:07;;;;;;;5.05;1.48;;;;;;;19.13;59.29;95182.09;10354582;28;20022;-28
2023/10/21 09:38:18;;;;;;;5.50;1.45;;;;;;;19.16;59.47;95165.94;10352100;28;20100;-28
2023/10/21 09:43:21;;;;;;;2.47;1.40;;;;;;;19.16;59.71;95171.03;10352114;28;20044;-28
2023/10/21 09:48:25;;;;;;;2.60;0.73;;;;;;;19.13;59.66;95166.00;10344975;28;20546;-28
2023/10/21 09:53:33;;;;;;;3.45;0.82;;;;;;;19.13;59.76;95176.16;10350337;28;20491;-27
2023/10/21 09:58:35;;;;;;;4.68;0.98;;;;;;;19.15;59.89;95175.25;10352920;28;20042;-28
2023/10/21 10:03:36;;;;;;;3.20;0.70;;;;;;;19.15;60.25;95174.41;10342354;28;20033;-27
2023/10/21 10:08:37;;;;;;;2.38;0.85;;;;;;;19.15;60.14;95175.25;10351895;28;20044;-28
2023/10/21 10:13:42;;;;;;;3.42;0.80;;;;;;;19.14;60.12;95172.75;10360981;28;20754;-28
2023/10/21 10:18:46;;;;;;;1.90;0.70;;;;;;;19.14;60.30;95163.44;10352210;28;20109;-29
2023/10/21 10:23:51;;;;;;;1.40;0.55;;;;;;;19.14;60.25;95163.44;10355116;28;20383;-28
2023/10/21 10:28:52;;;;;;;4.65;0.98;;;;;;;19.14;60.52;95176.13;10348632;28;20034;-28
2023/10/21 10:33:52;;;;;;;3.03;0.80;;;;;;;19.15;60.25;95169.34;10357521;28;20033;-28
2023/10/21 10:38:54;;;;;;;1.50;0.60;;;;;;;19.14;60.44;95175.28;10348170;28;20038;-28
2023/10/21 10:43:56;;;;;;;3.13;0.80;;;;;;;19.12;60.17;95169.44;10356161;28;20029;-28
2023/10/21 10:49:00;;;;;;;2.80;0.73;;;;;;;19.13;60.51;95171.09;10342612;28;20019;-28
2023/10/21 10:54:00;;;;;;;1.00;0.50;;;;;;;19.14;60.60;95172.75;10353295;28;20026;-28
2023/10/21 10:59:01;;;;;;;4.50;0.67;;;;;;;19.14;60.58;95168.53;10348059;28;20053;-28
2023/10/21 11:04:02;;;;;;;3.27;0.60;;;;;;;19.15;60.75;95164.25;10353426;28;20026;-29
2023/10/21 11:09:38;;;;;;;2.53;0.60;;;;;;;19.15;60.84;95169.34;10355776;28;20163;-28
2023/10/21 11:14:31;;;;;;;2.35;1.30;;;;;;;19.14;61.10;95160.91;10345558;28;20396;-28
2023/10/21 11:19:32;;;;;;;7.13;1.10;;;;;;;19.16;61.11;95163.41;10339379;28;20030;-28
2023/10/21 11:24:34;;;;;;;1.05;0.52;;;;;;;19.13;61.04;95173.63;10342401;28;20280;-28
2023/10/21 11:29:36;;;;;;;1.90;0.90;;;;;;;19.10;61.31;95186.41;10350038;28;20036;-27
2023/10/21 11:34:37;;;;;;;1.10;0.52;;;;;;;19.13;61.59;95193.91;10341783;28;20034;-29
2023/10/21 11:39:39;;;;;;;2.10;0.60;;;;;;;19.10;61.51;95176.25;10359267;28;20030;-29
2023/10/21 11:44:40;;;;;;;1.92;0.43;;;;;;;19.14;61.66;95182.91;10350766;28;20500;-28
2023/10/21 11:49:43;;;;;;;2.17;0.43;;;;;;;19.14;61.63;95187.97;10346397;28;20064;-28
2023/10/21 11:54:50;;;;;;;5.53;0.82;;;;;;;19.12;61.78;95184.66;10347021;28;20038;-28
2023/10/21 12:05:47;;;;;;;1.15;0.57;;;;;;;19.13;61.61;95196.47;10338352;28;20018;-27
2023/10/21 12:21:13;;;;;;;1.45;0.50;;;;;;;19.14;61.84;95186.28;10354846;28;20387;-28
2023/10/21 12:36:38;;;;;;;0.80;0.40;;;;;;;19.15;61.33;95189.63;10352437;28;20030;-28
2023/10/21 12:41:38;;;;;;;0.73;0.50;;;;;;;19.15;61.96;95194.69;10356427;28;20062;-28
2023/10/21 12:46:40;;;;;;;2.35;0.82;;;;;;;19.16;61.66;95196.41;10344521;28;20079;-28
2023/10/21 12:51:41;;;;;;;3.05;0.70;;;;;;;19.14;61.84;95182.91;10341966;28;20357;-28
2023/10/21 12:56:41;;;;;;;1.27;0.30;;;;;;;19.16;61.71;95181.16;10347932;28;20034;-28
2023/10/21 13:01:41;;;;;;;1.38;0.50;;;;;;;19.14;61.82;95180.34;10345850;28;20092;-28
2023/10/21 13:06:42;;;;;;;0.60;0.40;;;;;;;19.15;61.80;95182.03;10351676;28;20026;-27
2023/10/21 13:11:42;;;;;;;0.90;0.40;;;;;;;19.11;61.70;95173.69;10348076;28;20269;-28
2023/10/21 13:16:43;;;;;;;0.73;0.30;;;;;;;19.15;61.42;95179.47;10352408;28;20034;-28
2023/10/21 13:21:43;;;;;;;2.30;0.50;;;;;;;19.13;61.68;95179.53;10355531;28;20333;-28
2023/10/21 13:26:44;;;;;;;1.20;0.40;;;;;;;19.13;61.70;95197.31;10366792;28;20038;-28
2023/10/21 13:31:44;;;;;;;0.83;0.37;;;;;;;19.12;61.95;95189.72;10362859;28;20066;-27
2023/10/21 13:36:45;;;;;;;0.50;0.38;;;;;;;19.08;61.87;95188.16;10348947;28;20041;-27
2023/10/21 13:41:46;;;;;;;1.40;0.60;;;;;;;19.12;61.82;95190.56;10355815;28;20041;-28
2023/10/21 13:46:46;;;;;;;0.70;0.30;;;;;;;19.12;61.83;95194.78;10354687;28;20065;-28
2023/10/21 13:51:47;;;;;;;0.90;0.50;;;;;;;19.12;61.86;95197.34;10355241;28;20040;-28
2023/10/21 13:56:47;;;;;;;0.90;0.45;;;;;;;19.12;61.86;95192.25;10359240;28;20795;-28
2023/10/21 14:01:47;;;;;;;1.35;0.30;;;;;;;19.13;61.85;95193.91;10355637;28;20105;-28
2023/10/21 14:06:48;;;;;;;0.73;0.30;;;;;;;19.12;61.88;95198.19;10359349;28;20026;-29
2023/10/21 14:11:50;;;;;;;0.80;0.38;;;;;;;19.11;61.66;95204.13;10354982;28;20053;-29
2023/10/21 14:16:51;;;;;;;0.82;0.40;;;;;;;19.10;62.12;95199.09;10354569;28;20125;-28
2023/10/21 14:21:53;;;;;;;0.80;0.50;;;;;;;19.10;61.82;95207.50;10336917;28;20101;-27
2023/10/21 14:26:53;;;;;;;0.40;0.30;;;;;;;19.11;61.88;95206.66;10362926;28;20026;-28
2023/10/21 14:31:54;;;;;;;0.30;0.30;;;;;;;19.11;61.61;95213.44;10353374;28;20031;-28
2023/10/21 14:36:54;;;;;;;0.20;0.20;;;;;;;19.10;61.84;95221.91;10354018;28;20030;-28
2023/10/21 14:41:54;;;;;;;0.47;0.20;;;;;;;19.09;61.75;95222.78;10354595;28;20088;-28
2023/10/21 14:46:55;;;;;;;1.47;0.50;;;;;;;19.10;61.78;95221.91;10339687;28;20056;-28
2023/10/21 14:51:55;;;;;;;1.27;0.40;;;;;;;19.09;61.76;95213.47;10349991;28;20025;-29
2023/10/21 14:56:56;;;;;;;0.43;0.20;;;;;;;19.10;61.71;95221.91;10359605;28;20299;-28
2023/10/21 15:01:56;;;;;;;0.50;0.30;;;;;;;19.08;61.58;95231.28;10354064;28;20034;-28
2023/10/21 15:06:56;;;;;;;0.90;0.33;;;;;;;19.09;61.81;95235.47;10356606;28;20764;-28
2023/10/21 15:11:57;;;;;;;0.87;0.47;;;;;;;19.08;61.73;95223.66;10337825;28;20038;-28
2023/10/21 15:16:57;;;;;;;0.67;0.40;;;;;;;19.09;61.72;95227.88;10330921;28;20080;-28
2023/10/21 15:21:58;;;;;;;0.93;0.20;;;;;;;19.08;61.69;95232.09;10350018;28;20030;-28
2023/10/21 15:26:58;;;;;;;1.93;0.40;;;;;;;19.08;61.56;95231.28;10342345;28;20027;-28
2023/10/21 15:31:58;;;;;;;0.67;0.23;;;;;;;19.07;61.67;95239.72;10338403;28;20297;-28
2023/10/21 15:36:59;;;;;;;2.15;0.47;;;;;;;19.08;61.59;95243.97;10331286;28;20293;-28
2023/10/21 15:41:59;;;;;;;0.40;0.30;;;;;;;19.08;61.58;95243.97;10347971;28;20044;-27
2023/10/21 15:46:59;;;;;;;0.40;0.20;;;;;;;19.07;61.67;95253.25;10350067;28;20030;-28
2023/10/21 15:52:01;;;;;;;0.40;0.30;;;;;;;19.07;61.81;95263.41;10341409;28;20038;-28
2023/10/21 15:57:02;;;;;;;0.73;0.30;;;;;;;19.07;61.65;95267.63;10349808;28;20030;-28
2023/10/21 16:02:02;;;;;;;0.40;0.40;;;;;;;19.08;61.82;95274.41;10337525;28;20101;-28
2023/10/21 16:07:03;;;;;;;0.32;0.30;;;;;;;19.06;61.79;95281.19;10359874;28;20029;-28
2023/10/21 16:12:04;;;;;;;0.60;0.17;;;;;;;19.08;61.65;95294.69;10337870;28;20096;-28
2023/10/21 16:17:04;;;;;;;0.60;0.32;;;;;;;19.05;61.67;95294.75;10348566;28;20881;-28
2023/10/21 16:22:04;;;;;;;1.77;0.40;;;;;;;19.05;61.45;95305.72;10348081;28;20671;-28
2023/10/21 16:27:06;;;;;;;0.63;0.30;;;;;;;19.05;61.73;95320.09;10344037;28;20034;-28
2023/10/21 16:32:06;;;;;;;0.57;0.30;;;;;;;19.05;61.59;95310.81;10341122;28;20296;-27
2023/10/21 16:37:08;;;;;;;0.30;0.20;;;;;;;19.05;62.06;95318.41;10340416;28;20405;-29
2023/10/21 16:42:08;;;;;;;0.43;0.20;;;;;;;19.05;61.66;95320.94;10329945;28;20038;-28
2023/10/21 16:47:09;;;;;;;0.87;0.47;;;;;;;19.06;61.63;95347.13;10342327;28;20412;-28
2023/10/21 16:52:09;;;;;;;0.38;0.22;;;;;;;19.05;61.60;95358.16;10346442;28;20523;-29
2023/10/21 16:57:09;;;;;;;0.30;0.17;;;;;;;19.05;61.62;95364.06;10340280;28;20037;-28
2023/10/21 17:02:10;;;;;;;0.20;0.13;;;;;;;19.03;61.70;95363.28;10333264;28;20038;-28
2023/10/21 17:07:10;;;;;;;0.68;0.40;;;;;;;19.05;61.46;95368.31;10339948;28;20113;-28
2023/10/21 17:12:11;;;;;;;1.10;0.40;;;;;;;19.05;61.57;95375.91;10335611;28;20037;-28
2023/10/21 17:17:12;;;;;;;0.35;0.30;;;;;;;19.04;61.68;95394.53;10332379;28;20786;-28
2023/10/21 17:22:12;;;;;;;1.43;0.57;;;;;;;19.03;61.35;95408.09;10361496;28;20045;-28
2023/10/21 17:27:13;;;;;;;0.30;0.13;;;;;;;19.03;61.59;95410.63;10342518;28;20642;-28
2023/10/21 17:32:14;;;;;;;0.67;0.43;;;;;;;19.05;61.63;95411.41;10348155;28;20291;-28
2023/10/21 17:37:17;;;;;;;1.02;0.32;;;;;;;19.04;61.38;95423.28;10355395;28;20309;-28
2023/10/21 17:42:17;;;;;;;0.52;0.52;;;;;;;19.03;61.63;95430.91;10348750;28;20807;-28
2023/10/21 17:47:21;;;;;;;0.53;0.33;;;;;;;19.03;61.54;95441.06;10352655;28;20025;-28
2023/10/21 17:52:22;;;;;;;0.20;0.20;;;;;;;19.03;61.44;95453.75;10353135;28;20658;-28
2023/10/21 17:57:24;;;;;;;0.60;0.30;;;;;;;19.02;61.58;95463.03;10349621;28;20042;-28
2023/10/21 18:02:25;;;;;;;0.50;0.38;;;;;;;19.02;61.75;95463.03;10351606;28;20553;-27
2023/10/21 18:07:26;;;;;;;0.20;0.10;;;;;;;19.02;61.60;95483.34;10351594;28;20109;-28
2023/10/21 18:12:26;;;;;;;0.33;0.23;;;;;;;19.03;61.28;95477.44;10351273;28;20045;-28
2023/10/21 18:17:27;;;;;;;0.27;0.27;;;;;;;19.02;61.45;95482.53;10352114;28;20774;-28
2023/10/21 18:22:28;;;;;;;0.68;0.30;;;;;;;19.01;61.49;95480.84;10341440;28;20563;-28
2023/10/21 18:27:29;;;;;;;0.38;0.25;;;;;;;19.01;61.46;95486.75;10347655;28;20038;-28
2023/10/21 18:32:29;;;;;;;1.55;0.30;;;;;;;19.01;61.55;95496.88;10341759;28;20657;-28
2023/10/21 18:37:30;;;;;;;0.20;0.20;;;;;;;19.00;61.44;95481.72;10352800;28;20420;-29
2023/10/21 18:42:30;;;;;;;0.20;0.20;;;;;;;19.01;61.43;95496.06;10354334;28;20053;-27
2023/10/21 18:47:30;;;;;;;0.20;0.20;;;;;;;19.01;61.42;95501.16;10332101;28;20448;-28
2023/10/21 18:52:31;;;;;;;0.53;0.20;;;;;;;19.00;61.36;95502.00;10350046;28;20037;-28
2023/10/21 18:57:31;;;;;;;0.27;0.10;;;;;;;19.00;61.50;95504.56;10354904;28;20037;-28
2023/10/21 19:02:31;;;;;;;0.80;0.30;;;;;;;19.00;61.26;95515.50;10340785;28;20092;-27
2023/10/21 19:07:33;;;;;;;0.20;0.20;;;;;;;19.00;61.32;95525.66;10328030;28;20038;-28
2023/10/21 19:12:33;;;;;;;0.25;0.20;;;;;;;19.00;60.93;95519.78;10347844;28;20093;-29
2023/10/21 19:17:33;;;;;;;0.10;0.10;;;;;;;19.00;61.47;95522.31;10351174;28;20033;-28
2023/10/21 19:22:34;;;;;;;0.57;0.30;;;;;;;18.99;61.28;95529.06;10352893;28;20296;-28
2023/10/21 19:27:34;;;;;;;0.20;0.13;;;;;;;19.00;61.28;95535.00;10342869;28;20038;-29
2023/10/21 19:32:35;;;;;;;0.27;0.27;;;;;;;19.01;61.45;95546.81;10357066;28;20431;-28
2023/10/21 19:37:35;;;;;;;0.22;0.20;;;;;;;18.99;61.21;95549.34;10346188;28;20042;-28
2023/10/21 19:42:36;;;;;;;0.30;0.30;;;;;;;18.95;61.29;95557.91;10333398;28;20038;-28
2023/10/21 19:47:36;;;;;;;0.40;0.27;;;;;;;18.99;61.19;95563.75;10342551;28;20030;-29
2023/10/21 19:52:37;;;;;;;0.45;0.28;;;;;;;18.97;61.43;95568.00;10353509;28;20113;-28
2023/10/21 19:57:37;;;;;;;0.30;0.10;;;;;;;18.99;61.28;95576.44;10336693;28;20042;-28
2023/10/21 20:02:38;;;;;;;0.57;0.23;;;;;;;18.98;61.25;95595.03;10332410;28;20042;-28
2023/10/21 20:07:38;;;;;;;0.40;0.22;;;;;;;18.95;61.18;95587.50;10327487;28;20146;-28
2023/10/21 20:12:38;;;;;;;0.20;0.13;;;;;;;18.97;61.20;95590.81;10336688;28;20038;-29
2023/10/21 20:17:39;;;;;;;0.40;0.30;;;;;;;18.99;61.46;95604.34;10333997;28;20042;-28
2023/10/21 20:22:41;;;;;;;0.53;0.30;;;;;;;18.98;61.27;95602.63;10347586;28;20113;-33
2023/10/21 20:27:42;;;;;;;0.40;0.20;;;;;;;18.96;61.44;95604.38;10348380;28;20297;-29
2023/10/21 20:32:45;;;;;;;0.30;0.27;;;;;;;18.94;60.96;95603.59;10334715;28;20038;-28
2023/10/21 20:37:46;;;;;;;0.40;0.20;;;;;;;18.90;61.08;95597.72;10338082;28;20046;-28
2023/10/21 20:42:46;;;;;;;0.30;0.30;;;;;;;18.96;61.28;95614.53;10342840;28;20041;-28
2023/10/21 20:47:46;;;;;;;0.43;0.20;;;;;;;18.96;61.08;95617.06;10344350;28;20033;-28
2023/10/21 20:52:47;;;;;;;0.40;0.20;;;;;;;18.94;61.03;95608.66;10339505;28;20038;-28
2023/10/21 20:57:47;;;;;;;0.30;0.30;;;;;;;18.95;61.20;95617.94;10359183;28;20044;-28
2023/10/21 21:02:48;;;;;;;0.52;0.20;;;;;;;18.94;61.07;95631.47;10344602;28;20096;-28
2023/10/21 21:07:48;;;;;;;0.20;0.20;;;;;;;18.93;61.09;95624.75;10342197;28;20036;-28
2023/10/21 21:12:50;;;;;;;0.37;0.20;;;;;;;18.92;61.10;95623.88;10346041;28;20034;-27
2023/10/21 21:17:51;;;;;;;0.63;0.40;;;;;;;18.93;60.79;95632.34;10344984;28;20122;-28
2023/10/21 21:22:51;;;;;;;0.33;0.30;;;;;;;18.94;60.93;95634.00;10357611;28;20401;-28
2023/10/21 21:27:51;;;;;;;0.40;0.40;;;;;;;18.93;61.00;95629.81;10345158;28;20295;-28
2023/10/21 21:32:52;;;;;;;1.03;0.20;;;;;;;18.89;60.98;95618.03;10343044;28;20304;-28
2023/10/21 21:37:52;;;;;;;0.57;0.33;;;;;;;18.93;60.86;95625.56;10353943;28;20038;-27
2023/10/21 21:42:52;;;;;;;0.33;0.30;;;;;;;18.91;61.08;95632.38;10352873;28;20042;-28
2023/10/21 21:47:53;;;;;;;0.20;0.13;;;;;;;18.90;61.05;95640.84;10342079;28;20040;-28
2023/10/21 21:52:53;;;;;;;0.93;0.22;;;;;;;18.92;61.04;95640.81;10350934;28;20057;-29
2023/10/21 21:57:54;;;;;;;0.30;0.20;;;;;;;18.91;61.03;95646.78;10348737;28;20038;-27
2023/10/21 22:02:54;;;;;;;0.20;0.20;;;;;;;18.91;61.05;95646.78;10362275;28;20042;-27
2023/10/21 22:07:56;;;;;;;0.27;0.10;;;;;;;18.93;60.78;95652.63;10356789;28;20030;-28
2023/10/21 22:12:56;;;;;;;0.50;0.28;;;;;;;18.91;61.02;95656.91;10362995;28;20037;-28
2023/10/21 22:17:56;;;;;;;0.20;0.17;;;;;;;18.92;60.84;95663.66;10345465;28;20037;-27
2023/10/21 22:22:57;;;;;;;0.30;0.20;;;;;;;18.91;61.00;95656.91;10357470;28;20055;-28
2023/10/21 22:28:02;;;;;;;0.20;0.20;;;;;;;18.91;60.97;95661.97;10358243;28;20316;-28
2023/10/21 22:33:03;;;;;;;0.22;0.20;;;;;;;18.91;60.83;95656.91;10353059;28;20026;-27
2023/10/21 22:38:06;;;;;;;0.55;0.38;;;;;;;18.92;60.87;95668.72;10350347;28;20029;-27
2023/10/21 22:43:07;;;;;;;1.10;0.38;;;;;;;18.89;60.74;95667.06;10345095;28;20033;-28
2023/10/21 22:48:08;;;;;;;0.20;0.10;;;;;;;18.91;61.00;95672.13;10347668;28;20026;-27
2023/10/21 22:53:08;;;;;;;0.75;0.20;;;;;;;18.90;60.83;95678.03;10344043;28;20132;-28
2023/10/21 22:58:09;;;;;;;0.17;0.10;;;;;;;18.91;60.65;95682.28;10343078;28;20113;-28
2023/10/21 23:03:11;;;;;;;0.30;0.30;;;;;;;18.91;60.90;95682.28;10357268;28;20287;-28
2023/10/21 23:08:22;;;;;;;0.30;0.20;;;;;;;18.89;60.77;95689.91;10351934;28;20030;-28
2023/10/21 23:13:22;;;;;;;0.25;0.22;;;;;;;18.90;60.38;95693.25;10352277;28;20492;-28
2023/10/21 23:18:22;;;;;;;1.13;0.30;;;;;;;18.89;60.71;95709.34;10342312;28;20061;-28
2023/10/21 23:23:23;;;;;;;0.33;0.20;;;;;;;18.89;60.84;95714.41;10350406;28;20069;-28
2023/10/21 23:28:25;;;;;;;0.10;0.10;;;;;;;18.89;60.80;95719.47;10340182;28;20042;-27
2023/10/21 23:33:25;;;;;;;0.40;0.20;;;;;;;18.85;60.70;95715.34;10349383;28;20045;-28
2023/10/21 23:38:25;;;;;;;0.20;0.20;;;;;;;18.89;60.77;95729.63;10351257;28;20657;-28
2023/10/21 23:43:26;;;;;;;0.27;0.27;;;;;;;18.90;60.68;95743.97;10345433;28;20038;-29